sensor_id;sensor_type;location;lat;lon;timestamp;P1;durP1;ratioP1;P2;durP2;ratioP2
8462;SDS011;4268;52.506;13.462;2024-01-15T00:00:25;10.33;;;9.40;;
8462;SDS011;4268;52.506;13.462;2024-01-15T00:02:51;10.67;;;9.57;;
8462;SDS011;4268;52.506;13.462;2024-01-15T00:05:16;10.27;;;9.37;;
8462;SDS011;4268;52.506;13.462;2024-01-15T00:07:42;11.00;;;10.00;;
8462;SDS011;4268;52.506;13.462;2024-01-15T00:10:07;10.40;;;9.40;;
8462;SDS011;4268;52.506;13.462;2024-01-15T00:12:33;10.47;;;9.47;;
8462;SDS011;4268;52.506;13.462;2024-01-15T00:14:58;9.90;;;8.90;;
8462;SDS011;4268;52.506;13.462;2024-01-15T00:17:24;10.73;;;9.73;;
8462;SDS011;4268;52.506;13.462;2024-01-15T00:19:49;10.13;;;9.13;;
8462;SDS011;4268;52.506;13.462;2024-01-15T00:22:15;11.07;;;9.93;;
8462;SDS011;4268;52.506;13.462;2024-01-15T00:24:40;10.30;;;9.40;;
8462;SDS011;4268;52.506;13.462;2024-01-15T00:27:06;10.23;;;9.23;;
8462;SDS011;4268;52.506;13.462;2024-01-15T00:29:31;9.70;;;8.70;;
8462;SDS011;4268;52.506;13.462;2024-01-15T00:31:57;9.97;;;8.97;;
8462;SDS011;4268;52.506;13.462;2024-01-15T00:34:22;10.40;;;8.97;;
8462;SDS011;4268;52.506;13.462;2024-01-15T00:36:48;10.10;;;9.10;;
8462;SDS011;4268;52.506;13.462;2024-01-15T00:39:13;9.80;;;8.80;;
8462;SDS011;4268;52.506;13.462;2024-01-15T00:41:39;9.87;;;8.97;;
8462;SDS011;4268;52.506;13.462;2024-01-15T00:44:05;10.10;;;9.10;;
8462;SDS011;4268;52.506;13.462;2024-01-15T00:46:30;9.93;;;9.03;;
8462;SDS011;4268;52.506;13.462;2024-01-15T00:48:56;10.13;;;9.13;;
8462;SDS011;4268;52.506;13.462;2024-01-15T00:51:21;10.50;;;9.40;;
8462;SDS011;4268;52.506;13.462;2024-01-15T00:53:47;10.27;;;9.27;;
8462;SDS011;4268;52.506;13.462;2024-01-15T00:56:13;10.40;;;9.40;;
8462;SDS011;4268;52.506;13.462;2024-01-15T00:58:38;9.73;;;8.83;;
8462;SDS011;4268;52.506;13.462;2024-01-15T01:01:04;9.80;;;8.83;;
8462;SDS011;4268;52.506;13.462;2024-01-15T01:03:29;9.37;;;8.50;;
8462;SDS011;4268;52.506;13.462;2024-01-15T01:05:55;9.37;;;8.47;;
8462;SDS011;4268;52.506;13.462;2024-01-15T01:08:20;10.23;;;9.23;;
8462;SDS011;4268;52.506;13.462;2024-01-15T01:10:46;9.53;;;8.70;;
8462;SDS011;4268;52.506;13.462;2024-01-15T01:13:11;9.53;;;8.73;;
8462;SDS011;4268;52.506;13.462;2024-01-15T01:15:37;9.63;;;8.73;;
8462;SDS011;4268;52.506;13.462;2024-01-15T01:18:03;10.10;;;9.10;;
8462;SDS011;4268;52.506;13.462;2024-01-15T01:20:29;10.03;;;8.70;;
8462;SDS011;4268;52.506;13.462;2024-01-15T01:22:55;10.63;;;9.63;;
8462;SDS011;4268;52.506;13.462;2024-01-15T01:25:20;10.23;;;9.23;;
8462;SDS011;4268;52.506;13.462;2024-01-15T01:27:46;9.93;;;9.03;;
8462;SDS011;4268;52.506;13.462;2024-01-15T01:30:11;9.97;;;9.00;;
8462;SDS011;4268;52.506;13.462;2024-01-15T01:32:37;10.97;;;9.50;;
8462;SDS011;4268;52.506;13.462;2024-01-15T01:35:03;9.73;;;8.80;;
8462;SDS011;4268;52.506;13.462;2024-01-15T01:37:29;10.20;;;9.20;;
8462;SDS011;4268;52.506;13.462;2024-01-15T01:39:54;9.63;;;8.70;;
8462;SDS011;4268;52.506;13.462;2024-01-15T01:42:20;10.40;;;9.40;;
8462;SDS011;4268;52.506;13.462;2024-01-15T01:44:45;9.97;;;8.97;;
8462;SDS011;4268;52.506;13.462;2024-01-15T01:47:11;10.77;;;9.67;;
8462;SDS011;4268;52.506;13.462;2024-01-15T01:49:37;10.00;;;9.00;;
8462;SDS011;4268;52.506;13.462;2024-01-15T01:52:04;9.07;;;8.27;;
8462;SDS011;4268;52.506;13.462;2024-01-15T01:54:32;9.57;;;8.63;;
8462;SDS011;4268;52.506;13.462;2024-01-15T01:56:59;10.10;;;9.10;;
8462;SDS011;4268;52.506;13.462;2024-01-15T01:59:27;10.17;;;9.13;;
8462;SDS011;4268;52.506;13.462;2024-01-15T02:01:56;10.60;;;9.60;;
8462;SDS011;4268;52.506;13.462;2024-01-15T02:04:23;10.43;;;9.33;;
8462;SDS011;4268;52.506;13.462;2024-01-15T02:06:50;10.67;;;9.67;;
8462;SDS011;4268;52.506;13.462;2024-01-15T02:09:16;10.33;;;9.33;;
8462;SDS011;4268;52.506;13.462;2024-01-15T02:11:48;11.70;;;10.23;;
8462;SDS011;4268;52.506;13.462;2024-01-15T02:14:14;11.10;;;9.90;;
8462;SDS011;4268;52.506;13.462;2024-01-15T02:16:40;10.87;;;9.77;;
8462;SDS011;4268;52.506;13.462;2024-01-15T02:19:05;11.00;;;9.70;;
8462;SDS011;4268;52.506;13.462;2024-01-15T02:21:31;10.53;;;9.43;;
8462;SDS011;4268;52.506;13.462;2024-01-15T02:23:57;10.97;;;9.37;;
8462;SDS011;4268;52.506;13.462;2024-01-15T02:26:23;10.33;;;9.33;;
8462;SDS011;4268;52.506;13.462;2024-01-15T02:28:49;10.00;;;9.00;;
8462;SDS011;4268;52.506;13.462;2024-01-15T02:31:16;9.23;;;8.33;;
8462;SDS011;4268;52.506;13.462;2024-01-15T02:33:42;11.27;;;8.60;;
8462;SDS011;4268;52.506;13.462;2024-01-15T02:36:08;9.23;;;8.20;;
8462;SDS011;4268;52.506;13.462;2024-01-15T02:38:34;9.37;;;8.00;;
8462;SDS011;4268;52.506;13.462;2024-01-15T02:40:59;8.63;;;7.73;;
8462;SDS011;4268;52.506;13.462;2024-01-15T02:43:25;9.70;;;8.23;;
8462;SDS011;4268;52.506;13.462;2024-01-15T02:45:50;8.57;;;7.77;;
8462;SDS011;4268;52.506;13.462;2024-01-15T02:48:16;8.83;;;7.63;;
8462;SDS011;4268;52.506;13.462;2024-01-15T02:50:41;8.70;;;7.80;;
8462;SDS011;4268;52.506;13.462;2024-01-15T02:53:07;9.30;;;8.13;;
8462;SDS011;4268;52.506;13.462;2024-01-15T02:55:32;10.00;;;7.73;;
8462;SDS011;4268;52.506;13.462;2024-01-15T02:57:58;8.43;;;7.53;;
8462;SDS011;4268;52.506;13.462;2024-01-15T03:00:24;8.57;;;7.77;;
8462;SDS011;4268;52.506;13.462;2024-01-15T03:02:50;8.37;;;7.53;;
8462;SDS011;4268;52.506;13.462;2024-01-15T03:05:16;7.87;;;7.17;;
8462;SDS011;4268;52.506;13.462;2024-01-15T03:07:42;8.40;;;7.57;;
8462;SDS011;4268;52.506;13.462;2024-01-15T03:10:08;8.80;;;8.00;;
8462;SDS011;4268;52.506;13.462;2024-01-15T03:12:33;8.30;;;7.50;;
8462;SDS011;4268;52.506;13.462;2024-01-15T03:14:59;8.83;;;8.00;;
8462;SDS011;4268;52.506;13.462;2024-01-15T03:17:25;8.37;;;7.57;;
8462;SDS011;4268;52.506;13.462;2024-01-15T03:19:50;7.87;;;7.17;;
8462;SDS011;4268;52.506;13.462;2024-01-15T03:22:16;8.17;;;7.33;;
8462;SDS011;4268;52.506;13.462;2024-01-15T03:24:42;9.90;;;7.57;;
8462;SDS011;4268;52.506;13.462;2024-01-15T03:27:08;7.93;;;7.10;;
8462;SDS011;4268;52.506;13.462;2024-01-15T03:29:34;7.90;;;7.10;;
8462;SDS011;4268;52.506;13.462;2024-01-15T03:31:59;7.93;;;7.23;;
8462;SDS011;4268;52.506;13.462;2024-01-15T03:34:25;10.07;;;7.47;;
8462;SDS011;4268;52.506;13.462;2024-01-15T03:36:50;8.17;;;7.33;;
8462;SDS011;4268;52.506;13.462;2024-01-15T03:39:16;8.00;;;7.13;;
8462;SDS011;4268;52.506;13.462;2024-01-15T03:41:41;8.27;;;7.47;;
8462;SDS011;4268;52.506;13.462;2024-01-15T03:44:07;7.70;;;6.93;;
8462;SDS011;4268;52.506;13.462;2024-01-15T03:46:32;7.50;;;6.80;;
8462;SDS011;4268;52.506;13.462;2024-01-15T03:48:58;8.50;;;7.43;;
8462;SDS011;4268;52.506;13.462;2024-01-15T03:51:23;8.60;;;7.20;;
8462;SDS011;4268;52.506;13.462;2024-01-15T03:53:49;7.73;;;6.80;;
8462;SDS011;4268;52.506;13.462;2024-01-15T03:56:14;8.17;;;6.80;;
8462;SDS011;4268;52.506;13.462;2024-01-15T03:58:40;7.00;;;6.30;;
8462;SDS011;4268;52.506;13.462;2024-01-15T04:01:09;8.13;;;6.87;;
8462;SDS011;4268;52.506;13.462;2024-01-15T04:03:35;7.97;;;6.63;;
8462;SDS011;4268;52.506;13.462;2024-01-15T04:06:01;7.10;;;6.10;;
8462;SDS011;4268;52.506;13.462;2024-01-15T04:08:26;9.53;;;6.50;;
8462;SDS011;4268;52.506;13.462;2024-01-15T04:10:52;7.27;;;6.40;;
8462;SDS011;4268;52.506;13.462;2024-01-15T04:13:17;7.00;;;6.27;;
8462;SDS011;4268;52.506;13.462;2024-01-15T04:15:43;7.17;;;6.07;;
8462;SDS011;4268;52.506;13.462;2024-01-15T04:18:08;7.27;;;6.67;;
8462;SDS011;4268;52.506;13.462;2024-01-15T04:20:34;7.00;;;6.20;;
8462;SDS011;4268;52.506;13.462;2024-01-15T04:23:00;6.90;;;6.20;;
8462;SDS011;4268;52.506;13.462;2024-01-15T04:25:25;6.80;;;6.20;;
8462;SDS011;4268;52.506;13.462;2024-01-15T04:27:51;7.67;;;6.20;;
8462;SDS011;4268;52.506;13.462;2024-01-15T04:30:16;7.47;;;6.13;;
8462;SDS011;4268;52.506;13.462;2024-01-15T04:32:42;6.30;;;5.63;;
8462;SDS011;4268;52.506;13.462;2024-01-15T04:35:07;8.73;;;5.47;;
8462;SDS011;4268;52.506;13.462;2024-01-15T04:37:33;6.07;;;5.47;;
8462;SDS011;4268;52.506;13.462;2024-01-15T04:39:58;7.57;;;5.60;;
8462;SDS011;4268;52.506;13.462;2024-01-15T04:42:24;6.97;;;6.27;;
8462;SDS011;4268;52.506;13.462;2024-01-15T04:44:49;5.80;;;5.20;;
8462;SDS011;4268;52.506;13.462;2024-01-15T04:47:15;5.70;;;5.10;;
8462;SDS011;4268;52.506;13.462;2024-01-15T04:49:41;9.20;;;5.73;;
8462;SDS011;4268;52.506;13.462;2024-01-15T04:52:06;6.67;;;5.07;;
8462;SDS011;4268;52.506;13.462;2024-01-15T04:54:35;7.93;;;5.80;;
8462;SDS011;4268;52.506;13.462;2024-01-15T04:57:00;5.37;;;4.80;;
8462;SDS011;4268;52.506;13.462;2024-01-15T04:59:26;5.93;;;5.20;;
8462;SDS011;4268;52.506;13.462;2024-01-15T05:01:51;7.83;;;4.90;;
8462;SDS011;4268;52.506;13.462;2024-01-15T05:04:17;9.80;;;4.90;;
8462;SDS011;4268;52.506;13.462;2024-01-15T05:06:42;5.77;;;4.90;;
8462;SDS011;4268;52.506;13.462;2024-01-15T05:09:08;5.13;;;4.63;;
8462;SDS011;4268;52.506;13.462;2024-01-15T05:11:33;6.53;;;4.70;;
8462;SDS011;4268;52.506;13.462;2024-01-15T05:13:59;5.87;;;4.63;;
8462;SDS011;4268;52.506;13.462;2024-01-15T05:16:24;4.80;;;4.00;;
8462;SDS011;4268;52.506;13.462;2024-01-15T05:18:50;4.80;;;4.03;;
8462;SDS011;4268;52.506;13.462;2024-01-15T05:21:15;6.37;;;4.10;;
8462;SDS011;4268;52.506;13.462;2024-01-15T05:23:41;6.10;;;4.17;;
8462;SDS011;4268;52.506;13.462;2024-01-15T05:26:06;5.53;;;3.97;;
8462;SDS011;4268;52.506;13.462;2024-01-15T05:28:33;7.30;;;4.60;;
8462;SDS011;4268;52.506;13.462;2024-01-15T05:30:59;7.07;;;4.30;;
8462;SDS011;4268;52.506;13.462;2024-01-15T05:33:25;6.80;;;4.47;;
8462;SDS011;4268;52.506;13.462;2024-01-15T05:35:50;5.77;;;4.10;;
8462;SDS011;4268;52.506;13.462;2024-01-15T05:38:16;5.70;;;4.20;;
8462;SDS011;4268;52.506;13.462;2024-01-15T05:40:42;6.93;;;4.03;;
8462;SDS011;4268;52.506;13.462;2024-01-15T05:43:08;6.90;;;4.17;;
8462;SDS011;4268;52.506;13.462;2024-01-15T05:45:34;4.70;;;4.07;;
8462;SDS011;4268;52.506;13.462;2024-01-15T05:48:00;6.03;;;4.10;;
8462;SDS011;4268;52.506;13.462;2024-01-15T05:50:26;5.70;;;4.30;;
8462;SDS011;4268;52.506;13.462;2024-01-15T05:52:51;5.00;;;4.23;;
8462;SDS011;4268;52.506;13.462;2024-01-15T05:55:17;5.57;;;4.00;;
8462;SDS011;4268;52.506;13.462;2024-01-15T05:57:43;4.87;;;3.80;;
8462;SDS011;4268;52.506;13.462;2024-01-15T06:00:09;4.87;;;4.07;;
8462;SDS011;4268;52.506;13.462;2024-01-15T06:02:37;4.83;;;4.10;;
8462;SDS011;4268;52.506;13.462;2024-01-15T06:05:03;5.57;;;4.13;;
8462;SDS011;4268;52.506;13.462;2024-01-15T06:07:29;5.43;;;4.00;;
8462;SDS011;4268;52.506;13.462;2024-01-15T06:09:54;6.77;;;4.00;;
8462;SDS011;4268;52.506;13.462;2024-01-15T06:12:22;6.63;;;4.17;;
8462;SDS011;4268;52.506;13.462;2024-01-15T06:14:48;6.50;;;3.83;;
8462;SDS011;4268;52.506;13.462;2024-01-15T06:17:13;5.20;;;4.03;;
8462;SDS011;4268;52.506;13.462;2024-01-15T06:19:39;5.23;;;3.67;;
8462;SDS011;4268;52.506;13.462;2024-01-15T06:22:04;6.03;;;3.83;;
8462;SDS011;4268;52.506;13.462;2024-01-15T06:24:30;7.50;;;4.43;;
8462;SDS011;4268;52.506;13.462;2024-01-15T06:26:55;4.30;;;3.90;;
8462;SDS011;4268;52.506;13.462;2024-01-15T06:29:21;5.87;;;4.00;;
8462;SDS011;4268;52.506;13.462;2024-01-15T06:31:46;6.80;;;3.60;;
8462;SDS011;4268;52.506;13.462;2024-01-15T06:34:12;5.23;;;3.77;;
8462;SDS011;4268;52.506;13.462;2024-01-15T06:36:37;5.80;;;3.80;;
8462;SDS011;4268;52.506;13.462;2024-01-15T06:39:03;7.53;;;4.10;;
8462;SDS011;4268;52.506;13.462;2024-01-15T06:41:29;5.37;;;3.53;;
8462;SDS011;4268;52.506;13.462;2024-01-15T06:43:54;6.63;;;3.77;;
8462;SDS011;4268;52.506;13.462;2024-01-15T06:46:21;6.13;;;4.27;;
8462;SDS011;4268;52.506;13.462;2024-01-15T06:48:46;9.80;;;3.80;;
8462;SDS011;4268;52.506;13.462;2024-01-15T06:51:12;5.73;;;3.93;;
8462;SDS011;4268;52.506;13.462;2024-01-15T06:53:38;4.23;;;3.70;;
8462;SDS011;4268;52.506;13.462;2024-01-15T06:56:03;7.50;;;4.20;;
8462;SDS011;4268;52.506;13.462;2024-01-15T06:58:30;6.67;;;3.97;;
8462;SDS011;4268;52.506;13.462;2024-01-15T07:00:56;5.57;;;3.60;;
8462;SDS011;4268;52.506;13.462;2024-01-15T07:03:22;6.73;;;3.67;;
8462;SDS011;4268;52.506;13.462;2024-01-15T07:05:48;7.27;;;4.60;;
8462;SDS011;4268;52.506;13.462;2024-01-15T07:08:14;7.57;;;3.77;;
8462;SDS011;4268;52.506;13.462;2024-01-15T07:10:39;3.80;;;3.40;;
8462;SDS011;4268;52.506;13.462;2024-01-15T07:13:05;7.17;;;3.97;;
8462;SDS011;4268;52.506;13.462;2024-01-15T07:15:30;4.63;;;3.57;;
8462;SDS011;4268;52.506;13.462;2024-01-15T07:17:56;5.90;;;3.60;;
8462;SDS011;4268;52.506;13.462;2024-01-15T07:20:22;5.77;;;3.73;;
8462;SDS011;4268;52.506;13.462;2024-01-15T07:22:47;6.63;;;3.67;;
8462;SDS011;4268;52.506;13.462;2024-01-15T07:25:13;7.43;;;4.07;;
8462;SDS011;4268;52.506;13.462;2024-01-15T07:27:38;4.47;;;3.40;;
8462;SDS011;4268;52.506;13.462;2024-01-15T07:30:04;6.43;;;3.50;;
8462;SDS011;4268;52.506;13.462;2024-01-15T07:32:31;4.20;;;3.50;;
8462;SDS011;4268;52.506;13.462;2024-01-15T07:34:57;5.23;;;3.60;;
8462;SDS011;4268;52.506;13.462;2024-01-15T07:37:24;8.03;;;3.57;;
8462;SDS011;4268;52.506;13.462;2024-01-15T07:39:50;5.13;;;3.60;;
8462;SDS011;4268;52.506;13.462;2024-01-15T07:42:15;4.50;;;3.87;;
8462;SDS011;4268;52.506;13.462;2024-01-15T07:44:41;7.13;;;4.23;;
8462;SDS011;4268;52.506;13.462;2024-01-15T07:47:06;8.53;;;4.20;;
8462;SDS011;4268;52.506;13.462;2024-01-15T07:49:33;5.80;;;3.20;;
8462;SDS011;4268;52.506;13.462;2024-01-15T07:51:59;5.10;;;3.40;;
8462;SDS011;4268;52.506;13.462;2024-01-15T07:54:25;7.27;;;3.97;;
8462;SDS011;4268;52.506;13.462;2024-01-15T07:56:57;5.87;;;3.30;;
8462;SDS011;4268;52.506;13.462;2024-01-15T07:59:28;9.03;;;3.50;;
8462;SDS011;4268;52.506;13.462;2024-01-15T08:01:54;6.70;;;3.70;;
8462;SDS011;4268;52.506;13.462;2024-01-15T08:04:19;6.90;;;4.03;;
8462;SDS011;4268;52.506;13.462;2024-01-15T08:06:47;4.80;;;3.60;;
8462;SDS011;4268;52.506;13.462;2024-01-15T08:09:13;5.50;;;3.53;;
8462;SDS011;4268;52.506;13.462;2024-01-15T08:11:42;6.07;;;3.30;;
8462;SDS011;4268;52.506;13.462;2024-01-15T08:14:08;5.60;;;3.60;;
8462;SDS011;4268;52.506;13.462;2024-01-15T08:16:35;5.80;;;3.67;;
8462;SDS011;4268;52.506;13.462;2024-01-15T08:19:01;7.07;;;3.60;;
8462;SDS011;4268;52.506;13.462;2024-01-15T08:21:27;5.90;;;3.40;;
8462;SDS011;4268;52.506;13.462;2024-01-15T08:23:56;6.20;;;3.57;;
8462;SDS011;4268;52.506;13.462;2024-01-15T08:26:23;7.40;;;3.67;;
8462;SDS011;4268;52.506;13.462;2024-01-15T08:28:48;5.43;;;3.63;;
8462;SDS011;4268;52.506;13.462;2024-01-15T08:31:14;7.57;;;4.07;;
8462;SDS011;4268;52.506;13.462;2024-01-15T08:33:40;7.43;;;3.63;;
8462;SDS011;4268;52.506;13.462;2024-01-15T08:36:06;5.03;;;3.60;;
8462;SDS011;4268;52.506;13.462;2024-01-15T08:38:31;4.10;;;3.53;;
8462;SDS011;4268;52.506;13.462;2024-01-15T08:40:57;5.07;;;3.80;;
8462;SDS011;4268;52.506;13.462;2024-01-15T08:43:25;5.20;;;3.50;;
8462;SDS011;4268;52.506;13.462;2024-01-15T08:45:51;6.57;;;3.60;;
8462;SDS011;4268;52.506;13.462;2024-01-15T08:48:16;6.60;;;3.77;;
8462;SDS011;4268;52.506;13.462;2024-01-15T08:50:42;7.13;;;3.53;;
8462;SDS011;4268;52.506;13.462;2024-01-15T08:53:07;5.37;;;4.00;;
8462;SDS011;4268;52.506;13.462;2024-01-15T08:55:33;7.63;;;3.70;;
8462;SDS011;4268;52.506;13.462;2024-01-15T08:57:59;4.73;;;3.40;;
8462;SDS011;4268;52.506;13.462;2024-01-15T09:00:24;5.70;;;3.50;;
8462;SDS011;4268;52.506;13.462;2024-01-15T09:02:50;6.17;;;3.43;;
8462;SDS011;4268;52.506;13.462;2024-01-15T09:05:15;6.17;;;3.63;;
8462;SDS011;4268;52.506;13.462;2024-01-15T09:07:41;5.70;;;3.50;;
8462;SDS011;4268;52.506;13.462;2024-01-15T09:10:06;5.83;;;3.43;;
8462;SDS011;4268;52.506;13.462;2024-01-15T09:12:32;6.57;;;3.60;;
8462;SDS011;4268;52.506;13.462;2024-01-15T09:14:57;5.23;;;3.67;;
8462;SDS011;4268;52.506;13.462;2024-01-15T09:17:23;7.30;;;4.00;;
8462;SDS011;4268;52.506;13.462;2024-01-15T09:19:49;5.53;;;4.13;;
8462;SDS011;4268;52.506;13.462;2024-01-15T09:22:14;6.27;;;3.80;;
8462;SDS011;4268;52.506;13.462;2024-01-15T09:24:43;8.57;;;3.90;;
8462;SDS011;4268;52.506;13.462;2024-01-15T09:27:09;9.07;;;4.37;;
8462;SDS011;4268;52.506;13.462;2024-01-15T09:29:35;7.47;;;3.97;;
8462;SDS011;4268;52.506;13.462;2024-01-15T09:32:02;6.00;;;3.50;;
8462;SDS011;4268;52.506;13.462;2024-01-15T09:34:29;5.27;;;3.60;;
8462;SDS011;4268;52.506;13.462;2024-01-15T09:36:54;4.27;;;3.27;;
8462;SDS011;4268;52.506;13.462;2024-01-15T09:39:20;6.77;;;3.77;;
8462;SDS011;4268;52.506;13.462;2024-01-15T09:41:46;5.30;;;3.43;;
8462;SDS011;4268;52.506;13.462;2024-01-15T09:44:13;5.90;;;3.80;;
8462;SDS011;4268;52.506;13.462;2024-01-15T09:46:39;6.00;;;3.60;;
8462;SDS011;4268;52.506;13.462;2024-01-15T09:49:06;6.00;;;3.40;;
8462;SDS011;4268;52.506;13.462;2024-01-15T09:51:31;4.80;;;3.33;;
8462;SDS011;4268;52.506;13.462;2024-01-15T09:53:58;5.47;;;3.63;;
8462;SDS011;4268;52.506;13.462;2024-01-15T09:56:23;4.50;;;3.43;;
8462;SDS011;4268;52.506;13.462;2024-01-15T09:58:50;5.13;;;3.60;;
8462;SDS011;4268;52.506;13.462;2024-01-15T10:01:19;4.87;;;3.50;;
8462;SDS011;4268;52.506;13.462;2024-01-15T10:03:45;6.40;;;3.50;;
8462;SDS011;4268;52.506;13.462;2024-01-15T10:06:11;5.47;;;3.40;;
8462;SDS011;4268;52.506;13.462;2024-01-15T10:08:47;4.20;;;3.10;;
8462;SDS011;4268;52.506;13.462;2024-01-15T10:11:13;4.07;;;3.37;;
8462;SDS011;4268;52.506;13.462;2024-01-15T10:13:39;4.20;;;3.30;;
8462;SDS011;4268;52.506;13.462;2024-01-15T10:16:05;4.83;;;3.50;;
8462;SDS011;4268;52.506;13.462;2024-01-15T10:18:31;3.80;;;3.37;;
8462;SDS011;4268;52.506;13.462;2024-01-15T10:20:57;6.67;;;4.00;;
8462;SDS011;4268;52.506;13.462;2024-01-15T10:23:23;6.80;;;3.83;;
8462;SDS011;4268;52.506;13.462;2024-01-15T10:25:51;5.10;;;3.40;;
8462;SDS011;4268;52.506;13.462;2024-01-15T10:28:17;5.43;;;3.50;;
8462;SDS011;4268;52.506;13.462;2024-01-15T10:30:44;5.73;;;3.47;;
8462;SDS011;4268;52.506;13.462;2024-01-15T10:33:10;5.03;;;3.23;;
8462;SDS011;4268;52.506;13.462;2024-01-15T10:35:36;4.23;;;3.30;;
8462;SDS011;4268;52.506;13.462;2024-01-15T10:38:03;6.07;;;3.40;;
8462;SDS011;4268;52.506;13.462;2024-01-15T10:40:30;4.10;;;3.20;;
8462;SDS011;4268;52.506;13.462;2024-01-15T10:42:56;5.23;;;3.33;;
8462;SDS011;4268;52.506;13.462;2024-01-15T10:45:22;3.97;;;3.57;;
8462;SDS011;4268;52.506;13.462;2024-01-15T10:47:47;5.17;;;3.10;;
8462;SDS011;4268;52.506;13.462;2024-01-15T10:50:13;3.70;;;3.40;;
8462;SDS011;4268;52.506;13.462;2024-01-15T10:52:39;4.60;;;3.23;;
8462;SDS011;4268;52.506;13.462;2024-01-15T10:55:09;3.27;;;2.97;;
8462;SDS011;4268;52.506;13.462;2024-01-15T10:57:35;3.53;;;3.17;;
8462;SDS011;4268;52.506;13.462;2024-01-15T11:00:02;4.97;;;3.20;;
8462;SDS011;4268;52.506;13.462;2024-01-15T11:02:30;3.67;;;3.10;;
8462;SDS011;4268;52.506;13.462;2024-01-15T11:04:58;3.83;;;3.20;;
8462;SDS011;4268;52.506;13.462;2024-01-15T11:07:24;4.33;;;3.10;;
8462;SDS011;4268;52.506;13.462;2024-01-15T11:09:50;3.33;;;3.00;;
8462;SDS011;4268;52.506;13.462;2024-01-15T11:12:16;3.53;;;2.90;;
8462;SDS011;4268;52.506;13.462;2024-01-15T11:14:48;5.53;;;3.13;;
8462;SDS011;4268;52.506;13.462;2024-01-15T11:17:15;3.17;;;2.93;;
8462;SDS011;4268;52.506;13.462;2024-01-15T11:22:08;4.47;;;3.10;;
8462;SDS011;4268;52.506;13.462;2024-01-15T11:24:37;3.83;;;3.33;;
8462;SDS011;4268;52.506;13.462;2024-01-15T11:27:04;3.60;;;3.30;;
8462;SDS011;4268;52.506;13.462;2024-01-15T11:29:34;3.17;;;2.87;;
8462;SDS011;4268;52.506;13.462;2024-01-15T11:37:17;3.50;;;3.07;;
8462;SDS011;4268;52.506;13.462;2024-01-15T11:39:43;4.13;;;3.00;;
8462;SDS011;4268;52.506;13.462;2024-01-15T11:42:10;3.87;;;3.10;;
8462;SDS011;4268;52.506;13.462;2024-01-15T11:44:37;3.33;;;3.10;;
8462;SDS011;4268;52.506;13.462;2024-01-15T11:47:04;3.50;;;3.20;;
8462;SDS011;4268;52.506;13.462;2024-01-15T11:49:42;3.50;;;3.20;;
8462;SDS011;4268;52.506;13.462;2024-01-15T11:52:11;3.43;;;3.10;;
8462;SDS011;4268;52.506;13.462;2024-01-15T11:54:39;3.50;;;3.20;;
8462;SDS011;4268;52.506;13.462;2024-01-15T11:57:10;3.43;;;3.20;;
8462;SDS011;4268;52.506;13.462;2024-01-15T11:59:44;3.13;;;2.93;;
8462;SDS011;4268;52.506;13.462;2024-01-15T12:02:10;3.30;;;3.10;;
8462;SDS011;4268;52.506;13.462;2024-01-15T12:04:37;3.00;;;2.80;;
8462;SDS011;4268;52.506;13.462;2024-01-15T12:07:04;3.37;;;3.17;;
8462;SDS011;4268;52.506;13.462;2024-01-15T12:09:30;3.17;;;2.90;;
8462;SDS011;4268;52.506;13.462;2024-01-15T12:11:57;3.27;;;3.07;;
8462;SDS011;4268;52.506;13.462;2024-01-15T12:14:32;3.50;;;3.20;;
8462;SDS011;4268;52.506;13.462;2024-01-15T12:16:59;3.30;;;3.10;;
8462;SDS011;4268;52.506;13.462;2024-01-15T12:19:25;3.30;;;3.10;;
8462;SDS011;4268;52.506;13.462;2024-01-15T12:21:51;3.10;;;2.90;;
8462;SDS011;4268;52.506;13.462;2024-01-15T12:24:17;3.73;;;3.13;;
8462;SDS011;4268;52.506;13.462;2024-01-15T12:26:42;3.30;;;3.00;;
8462;SDS011;4268;52.506;13.462;2024-01-15T12:29:10;2.97;;;2.83;;
8462;SDS011;4268;52.506;13.462;2024-01-15T12:31:36;3.50;;;3.20;;
8462;SDS011;4268;52.506;13.462;2024-01-15T12:34:01;3.20;;;3.00;;
8462;SDS011;4268;52.506;13.462;2024-01-15T12:36:27;3.63;;;3.30;;
8462;SDS011;4268;52.506;13.462;2024-01-15T12:38:58;3.50;;;3.20;;
8462;SDS011;4268;52.506;13.462;2024-01-15T12:41:24;3.43;;;3.13;;
8462;SDS011;4268;52.506;13.462;2024-01-15T12:43:50;3.40;;;3.10;;
8462;SDS011;4268;52.506;13.462;2024-01-15T12:46:16;3.37;;;3.00;;
8462;SDS011;4268;52.506;13.462;2024-01-15T12:48:41;3.77;;;3.30;;
8462;SDS011;4268;52.506;13.462;2024-01-15T12:51:07;3.40;;;3.10;;
8462;SDS011;4268;52.506;13.462;2024-01-15T12:53:33;3.10;;;2.90;;
8462;SDS011;4268;52.506;13.462;2024-01-15T12:55:59;3.40;;;3.20;;
8462;SDS011;4268;52.506;13.462;2024-01-15T12:58:25;3.17;;;2.97;;
8462;SDS011;4268;52.506;13.462;2024-01-15T13:00:50;3.10;;;2.90;;
8462;SDS011;4268;52.506;13.462;2024-01-15T13:03:16;3.20;;;3.00;;
8462;SDS011;4268;52.506;13.462;2024-01-15T13:05:42;3.47;;;3.27;;
8462;SDS011;4268;52.506;13.462;2024-01-15T13:08:07;3.23;;;3.03;;
8462;SDS011;4268;52.506;13.462;2024-01-15T13:10:33;3.20;;;3.00;;
8462;SDS011;4268;52.506;13.462;2024-01-15T13:12:58;2.97;;;2.80;;
8462;SDS011;4268;52.506;13.462;2024-01-15T13:15:23;3.37;;;3.17;;
8462;SDS011;4268;52.506;13.462;2024-01-15T13:17:49;4.33;;;3.20;;
8462;SDS011;4268;52.506;13.462;2024-01-15T13:20:14;3.10;;;2.90;;
8462;SDS011;4268;52.506;13.462;2024-01-15T13:22:40;3.30;;;3.00;;
8462;SDS011;4268;52.506;13.462;2024-01-15T13:25:08;3.30;;;3.10;;
8462;SDS011;4268;52.506;13.462;2024-01-15T13:27:34;3.27;;;3.07;;
8462;SDS011;4268;52.506;13.462;2024-01-15T13:30:02;3.97;;;3.27;;
8462;SDS011;4268;52.506;13.462;2024-01-15T13:32:32;3.20;;;3.00;;
8462;SDS011;4268;52.506;13.462;2024-01-15T13:34:59;3.43;;;3.13;;
8462;SDS011;4268;52.506;13.462;2024-01-15T13:37:24;3.57;;;3.27;;
8462;SDS011;4268;52.506;13.462;2024-01-15T13:39:50;3.43;;;3.10;;
8462;SDS011;4268;52.506;13.462;2024-01-15T13:42:19;3.10;;;2.90;;
8462;SDS011;4268;52.506;13.462;2024-01-15T13:44:48;3.33;;;3.13;;
8462;SDS011;4268;52.506;13.462;2024-01-15T13:47:14;3.37;;;3.07;;
8462;SDS011;4268;52.506;13.462;2024-01-15T13:49:39;3.33;;;3.13;;
8462;SDS011;4268;52.506;13.462;2024-01-15T13:52:05;3.60;;;3.30;;
8462;SDS011;4268;52.506;13.462;2024-01-15T13:54:31;4.00;;;3.70;;
8462;SDS011;4268;52.506;13.462;2024-01-15T13:56:56;4.20;;;3.83;;
8462;SDS011;4268;52.506;13.462;2024-01-15T13:59:23;4.10;;;3.80;;
8462;SDS011;4268;52.506;13.462;2024-01-15T14:01:49;4.00;;;3.70;;
8462;SDS011;4268;52.506;13.462;2024-01-15T14:04:15;3.40;;;3.10;;
8462;SDS011;4268;52.506;13.462;2024-01-15T14:06:40;3.57;;;3.20;;
8462;SDS011;4268;52.506;13.462;2024-01-15T14:09:06;5.10;;;3.30;;
8462;SDS011;4268;52.506;13.462;2024-01-15T14:11:35;3.67;;;3.00;;
8462;SDS011;4268;52.506;13.462;2024-01-15T14:14:03;3.10;;;2.90;;
8462;SDS011;4268;52.506;13.462;2024-01-15T14:16:29;3.10;;;2.90;;
8462;SDS011;4268;52.506;13.462;2024-01-15T14:18:54;3.80;;;3.50;;
8462;SDS011;4268;52.506;13.462;2024-01-15T14:21:20;3.90;;;3.40;;
8462;SDS011;4268;52.506;13.462;2024-01-15T14:23:45;3.80;;;3.40;;
8462;SDS011;4268;52.506;13.462;2024-01-15T14:26:11;5.37;;;3.33;;
8462;SDS011;4268;52.506;13.462;2024-01-15T14:28:36;4.20;;;3.37;;
8462;SDS011;4268;52.506;13.462;2024-01-15T14:31:02;4.37;;;3.87;;
8462;SDS011;4268;52.506;13.462;2024-01-15T14:33:27;3.43;;;2.97;;
8462;SDS011;4268;52.506;13.462;2024-01-15T14:35:53;3.37;;;3.10;;
8462;SDS011;4268;52.506;13.462;2024-01-15T14:38:19;4.40;;;3.30;;
8462;SDS011;4268;52.506;13.462;2024-01-15T14:40:44;5.40;;;3.40;;
8462;SDS011;4268;52.506;13.462;2024-01-15T14:43:10;3.63;;;3.20;;
8462;SDS011;4268;52.506;13.462;2024-01-15T14:45:36;3.73;;;3.43;;
8462;SDS011;4268;52.506;13.462;2024-01-15T14:48:01;3.43;;;3.23;;
8462;SDS011;4268;52.506;13.462;2024-01-15T14:50:27;4.03;;;3.17;;
8462;SDS011;4268;52.506;13.462;2024-01-15T14:52:52;4.67;;;3.53;;
8462;SDS011;4268;52.506;13.462;2024-01-15T14:55:18;4.20;;;3.30;;
8462;SDS011;4268;52.506;13.462;2024-01-15T14:57:44;3.87;;;3.50;;
8462;SDS011;4268;52.506;13.462;2024-01-15T15:00:10;3.90;;;3.60;;